Terminal Aerodrome Forecast
Issued by NWS Louisville, KY

Home | Current Version | Previous Version | Text Only | Print | Product List | Glossary On
Versions: 1 2 3 4 5 6 7 8 9 10 11 12 13 14 15 16 17 18
000
FTUS43 KLMK 242000 AAA
TAFBWG
TAF AMD
KBWG 242050Z 2421/2518 25018G24KT P6SM FEW040
     FM242200 25012G20KT P6SM FEW040
     FM250100 24007KT P6SM SKC=

USA.gov is the U.S. government's official web portal to all federal, state and local government web resources and services.